sensor_id;sensor_type;location;lat;lon;timestamp;pressure;altitude;pressure_sealevel;temperature;humidity
40612;BME280;26317;44.894;20.286;2023-04-08T00:02:15;100949.47;;;6.87;93.18
40612;BME280;26317;44.894;20.286;2023-04-08T00:04:46;100909.56;;;6.64;93.25
40612;BME280;26317;44.894;20.286;2023-04-08T00:07:16;100939.13;;;6.90;93.29
40612;BME280;26317;44.894;20.286;2023-04-08T00:09:49;100928.97;;;6.87;93.30
40612;BME280;26317;44.894;20.286;2023-04-08T00:12:19;100942.94;;;6.94;93.22
40612;BME280;26317;44.894;20.286;2023-04-08T00:14:50;100941.69;;;6.97;93.49
40612;BME280;26317;44.894;20.286;2023-04-08T00:17:20;100932.63;;;6.98;93.49
40612;BME280;26317;44.894;20.286;2023-04-08T00:19:51;100944.09;;;6.99;93.50
40612;BME280;26317;44.894;20.286;2023-04-08T00:22:22;100936.81;;;6.94;93.65
40612;BME280;26317;44.894;20.286;2023-04-08T00:24:55;100911.47;;;6.80;93.25
40612;BME280;26317;44.894;20.286;2023-04-08T00:27:26;100940.38;;;7.00;93.41
40612;BME280;26317;44.894;20.286;2023-04-08T00:29:56;100938.75;;;6.99;93.28
40612;BME280;26317;44.894;20.286;2023-04-08T00:32:26;100916.09;;;6.84;93.26
40612;BME280;26317;44.894;20.286;2023-04-08T00:34:57;100941.44;;;6.99;93.41
40612;BME280;26317;44.894;20.286;2023-04-08T00:37:28;100936.00;;;6.93;93.39
40612;BME280;26317;44.894;20.286;2023-04-08T00:40:01;100935.78;;;6.95;93.60
40612;BME280;26317;44.894;20.286;2023-04-08T00:42:32;100937.28;;;6.91;93.44
40612;BME280;26317;44.894;20.286;2023-04-08T00:45:02;100950.56;;;7.03;93.22
40612;BME280;26317;44.894;20.286;2023-04-08T00:47:34;100944.69;;;7.01;93.26
40612;BME280;26317;44.894;20.286;2023-04-08T00:50:08;100946.44;;;6.95;93.34
40612;BME280;26317;44.894;20.286;2023-04-08T00:52:38;100950.47;;;6.98;93.83
40612;BME280;26317;44.894;20.286;2023-04-08T00:55:11;100931.84;;;6.86;94.19
40612;BME280;26317;44.894;20.286;2023-04-08T00:57:42;100950.72;;;6.96;94.27
40612;BME280;26317;44.894;20.286;2023-04-08T01:00:14;100951.28;;;6.98;94.40
40612;BME280;26317;44.894;20.286;2023-04-08T01:02:49;100962.22;;;6.97;93.84
40612;BME280;26317;44.894;20.286;2023-04-08T01:05:26;100948.50;;;6.93;94.26
40612;BME280;26317;44.894;20.286;2023-04-08T01:08:01;100949.56;;;6.92;94.11
40612;BME280;26317;44.894;20.286;2023-04-08T01:10:38;100952.91;;;6.99;94.07
40612;BME280;26317;44.894;20.286;2023-04-08T01:13:13;100957.69;;;6.97;94.13
40612;BME280;26317;44.894;20.286;2023-04-08T01:15:49;100957.69;;;6.97;93.52
40612;BME280;26317;44.894;20.286;2023-04-08T01:18:21;100947.25;;;6.96;93.72
40612;BME280;26317;44.894;20.286;2023-04-08T01:20:53;100943.91;;;6.88;92.86
40612;BME280;26317;44.894;20.286;2023-04-08T01:23:43;100948.50;;;6.93;93.20
40612;BME280;26317;44.894;20.286;2023-04-08T01:26:23;100930.00;;;6.86;93.12
40612;BME280;26317;44.894;20.286;2023-04-08T01:28:56;100946.44;;;6.95;93.00
40612;BME280;26317;44.894;20.286;2023-04-08T01:31:27;100939.13;;;6.90;93.00
40612;BME280;26317;44.894;20.286;2023-04-08T01:34:00;100937.41;;;6.96;92.72
40612;BME280;26317;44.894;20.286;2023-04-08T01:36:32;100935.19;;;6.93;92.84
40612;BME280;26317;44.894;20.286;2023-04-08T01:39:05;100945.50;;;7.01;92.95
40612;BME280;26317;44.894;20.286;2023-04-08T01:41:40;100944.44;;;7.02;92.81
40612;BME280;26317;44.894;20.286;2023-04-08T01:44:12;100937.94;;;6.98;92.73
40612;BME280;26317;44.894;20.286;2023-04-08T01:46:43;100922.22;;;6.85;93.04
40612;BME280;26317;44.894;20.286;2023-04-08T01:49:15;100905.91;;;6.81;92.63
40612;BME280;26317;44.894;20.286;2023-04-08T01:51:46;100942.03;;;7.01;92.66
40612;BME280;26317;44.894;20.286;2023-04-08T01:54:17;100910.19;;;6.82;92.75
40612;BME280;26317;44.894;20.286;2023-04-08T01:56:51;100939.09;;;7.02;92.89
40612;BME280;26317;44.894;20.286;2023-04-08T01:59:28;100935.63;;;7.02;92.97
40612;BME280;26317;44.894;20.286;2023-04-08T02:01:59;100945.25;;;7.03;93.17
40612;BME280;26317;44.894;20.286;2023-04-08T02:04:32;100943.38;;;7.03;92.48
40612;BME280;26317;44.894;20.286;2023-04-08T02:07:03;100929.06;;;6.92;93.01
40612;BME280;26317;44.894;20.286;2023-04-08T02:09:35;100938.44;;;6.95;93.30
40612;BME280;26317;44.894;20.286;2023-04-08T02:12:08;100930.31;;;6.90;93.63
40612;BME280;26317;44.894;20.286;2023-04-08T02:14:38;100923.72;;;6.92;93.74
40612;BME280;26317;44.894;20.286;2023-04-08T02:17:11;100931.03;;;6.97;93.86
40612;BME280;26317;44.894;20.286;2023-04-08T02:19:46;100929.94;;;6.98;93.68
40612;BME280;26317;44.894;20.286;2023-04-08T02:22:28;100931.03;;;6.97;94.19
40612;BME280;26317;44.894;20.286;2023-04-08T02:25:03;100934.13;;;6.94;94.40
40612;BME280;26317;44.894;20.286;2023-04-08T02:27:38;100932.63;;;6.98;94.61
40612;BME280;26317;44.894;20.286;2023-04-08T02:30:10;100942.47;;;6.98;94.89
40612;BME280;26317;44.894;20.286;2023-04-08T02:32:41;100908.00;;;6.79;95.18
40612;BME280;26317;44.894;20.286;2023-04-08T02:35:14;100936.34;;;6.97;95.32
40612;BME280;26317;44.894;20.286;2023-04-08T02:37:45;100931.38;;;6.89;95.50
40612;BME280;26317;44.894;20.286;2023-04-08T02:40:27;100936.81;;;6.94;95.70
40612;BME280;26317;44.894;20.286;2023-04-08T02:43:01;100931.47;;;6.94;95.54
40612;BME280;26317;44.894;20.286;2023-04-08T02:45:34;100929.84;;;6.93;95.65
40612;BME280;26317;44.894;20.286;2023-04-08T02:48:08;100928.25;;;6.92;95.77
40612;BME280;26317;44.894;20.286;2023-04-08T02:50:38;100941.31;;;6.93;94.95
40612;BME280;26317;44.894;20.286;2023-04-08T02:53:09;100939.94;;;6.91;95.17
40612;BME280;26317;44.894;20.286;2023-04-08T02:55:39;100937.75;;;6.88;95.46
40612;BME280;26317;44.894;20.286;2023-04-08T02:58:13;100948.44;;;6.88;94.90
40612;BME280;26317;44.894;20.286;2023-04-08T03:00:43;100945.50;;;6.89;95.30
40612;BME280;26317;44.894;20.286;2023-04-08T03:03:13;100911.84;;;6.72;95.13
40612;BME280;26317;44.894;20.286;2023-04-08T03:05:43;100935.66;;;6.90;94.92
40612;BME280;26317;44.894;20.286;2023-04-08T03:08:14;100940.50;;;6.93;95.08
40612;BME280;26317;44.894;20.286;2023-04-08T03:10:44;100943.19;;;6.93;94.81
40612;BME280;26317;44.894;20.286;2023-04-08T03:13:16;100909.41;;;6.70;94.50
40612;BME280;26317;44.894;20.286;2023-04-08T03:15:47;100945.41;;;6.96;94.25
40612;BME280;26317;44.894;20.286;2023-04-08T03:18:17;100936.25;;;6.92;94.40
40612;BME280;26317;44.894;20.286;2023-04-08T03:20:47;100942.94;;;6.94;94.17
40612;BME280;26317;44.894;20.286;2023-04-08T03:23:18;100941.09;;;6.95;94.55
40612;BME280;26317;44.894;20.286;2023-04-08T03:25:48;100949.44;;;6.99;94.58
40612;BME280;26317;44.894;20.286;2023-04-08T03:28:21;100948.63;;;6.98;94.43
40612;BME280;26317;44.894;20.286;2023-04-08T03:30:51;100951.88;;;7.00;94.24
40612;BME280;26317;44.894;20.286;2023-04-08T03:33:22;100955.09;;;7.02;94.38
40612;BME280;26317;44.894;20.286;2023-04-08T03:35:53;100955.34;;;7.01;93.91
40612;BME280;26317;44.894;20.286;2023-04-08T03:38:24;100946.53;;;7.00;94.32
40612;BME280;26317;44.894;20.286;2023-04-08T03:40:54;100955.09;;;7.02;93.88
40612;BME280;26317;44.894;20.286;2023-04-08T03:43:27;100946.53;;;7.00;93.95
40612;BME280;26317;44.894;20.286;2023-04-08T03:45:58;100925.97;;;6.84;94.05
40612;BME280;26317;44.894;20.286;2023-04-08T03:48:29;100963.03;;;6.97;94.13
40612;BME280;26317;44.894;20.286;2023-04-08T03:50:59;100965.69;;;6.97;94.23
40612;BME280;26317;44.894;20.286;2023-04-08T03:53:29;100964.88;;;6.97;94.00
40612;BME280;26317;44.894;20.286;2023-04-08T03:56:00;100964.50;;;6.93;93.94
40612;BME280;26317;44.894;20.286;2023-04-08T03:58:33;100965.00;;;6.90;94.44
40612;BME280;26317;44.894;20.286;2023-04-08T04:01:04;100974.72;;;6.96;93.83
40612;BME280;26317;44.894;20.286;2023-04-08T04:03:34;100927.16;;;6.65;94.08
40612;BME280;26317;44.894;20.286;2023-04-08T04:06:05;100968.13;;;6.87;94.21
40612;BME280;26317;44.894;20.286;2023-04-08T04:08:35;100976.00;;;6.93;93.29
40612;BME280;26317;44.894;20.286;2023-04-08T04:11:05;100988.06;;;6.96;93.92
40612;BME280;26317;44.894;20.286;2023-04-08T04:13:38;100982.94;;;6.94;93.72
40612;BME280;26317;44.894;20.286;2023-04-08T04:16:08;100991.75;;;6.95;93.74
40612;BME280;26317;44.894;20.286;2023-04-08T04:18:38;100962.94;;;6.80;94.04
40612;BME280;26317;44.894;20.286;2023-04-08T04:21:09;100988.06;;;6.96;93.83
40612;BME280;26317;44.894;20.286;2023-04-08T04:23:39;100983.28;;;6.98;94.42
40612;BME280;26317;44.894;20.286;2023-04-08T04:26:10;100968.13;;;6.87;94.26
40612;BME280;26317;44.894;20.286;2023-04-08T04:28:43;100989.22;;;7.00;94.39
40612;BME280;26317;44.894;20.286;2023-04-08T04:31:18;100995.03;;;6.97;94.42
40612;BME280;26317;44.894;20.286;2023-04-08T04:33:49;100974.16;;;6.82;94.72
40612;BME280;26317;44.894;20.286;2023-04-08T04:36:19;100989.81;;;6.90;95.01
40612;BME280;26317;44.894;20.286;2023-04-08T04:38:50;101001.94;;;6.98;94.92
40612;BME280;26317;44.894;20.286;2023-04-08T04:41:20;100994.91;;;6.92;95.09
40612;BME280;26317;44.894;20.286;2023-04-08T04:43:54;101000.25;;;6.92;94.69
40612;BME280;26317;44.894;20.286;2023-04-08T04:46:24;101001.63;;;6.94;94.90
40612;BME280;26317;44.894;20.286;2023-04-08T04:48:55;101006.25;;;6.99;95.09
40612;BME280;26317;44.894;20.286;2023-04-08T04:51:25;100980.53;;;6.81;95.25
40612;BME280;26317;44.894;20.286;2023-04-08T04:53:56;101013.22;;;7.00;95.37
40612;BME280;26317;44.894;20.286;2023-04-08T04:56:26;101006.84;;;7.01;95.69
40612;BME280;26317;44.894;20.286;2023-04-08T04:58:59;101006.47;;;6.98;96.05
40612;BME280;26317;44.894;20.286;2023-04-08T05:01:31;101006.34;;;7.04;95.50
40612;BME280;26317;44.894;20.286;2023-04-08T05:04:02;101019.22;;;7.07;95.75
40612;BME280;26317;44.894;20.286;2023-04-08T05:06:32;100998.72;;;6.96;96.46
40612;BME280;26317;44.894;20.286;2023-04-08T05:09:02;101008.06;;;7.10;96.52
40612;BME280;26317;44.894;20.286;2023-04-08T05:11:32;101013.41;;;7.10;96.25
40612;BME280;26317;44.894;20.286;2023-04-08T05:14:05;101020.13;;;7.13;95.56
40612;BME280;26317;44.894;20.286;2023-04-08T05:16:36;101004.72;;;7.03;95.54
40612;BME280;26317;44.894;20.286;2023-04-08T05:19:06;101022.91;;;7.18;95.77
40612;BME280;26317;44.894;20.286;2023-04-08T05:21:37;101025.09;;;7.21;95.50
40612;BME280;26317;44.894;20.286;2023-04-08T05:24:07;101017.31;;;7.19;95.54
40612;BME280;26317;44.894;20.286;2023-04-08T05:26:38;101026.00;;;7.26;95.58
40612;BME280;26317;44.894;20.286;2023-04-08T05:29:11;101028.22;;;7.29;95.31
40612;BME280;26317;44.894;20.286;2023-04-08T05:31:42;101031.44;;;7.31;95.67
40612;BME280;26317;44.894;20.286;2023-04-08T05:34:12;101038.25;;;7.39;95.99
40612;BME280;26317;44.894;20.286;2023-04-08T05:36:49;101031.44;;;7.31;95.18
40612;BME280;26317;44.894;20.286;2023-04-08T05:39:20;101034.00;;;7.38;94.43
40612;BME280;26317;44.894;20.286;2023-04-08T05:41:50;101038.84;;;7.41;94.34
40612;BME280;26317;44.894;20.286;2023-04-08T05:44:25;101042.88;;;7.44;93.76
40612;BME280;26317;44.894;20.286;2023-04-08T05:46:56;101040.00;;;7.45;94.04
40612;BME280;26317;44.894;20.286;2023-04-08T05:49:26;101035.94;;;7.43;94.40
40612;BME280;26317;44.894;20.286;2023-04-08T05:51:56;101029.16;;;7.52;94.46
40612;BME280;26317;44.894;20.286;2023-04-08T05:54:27;101013.63;;;7.49;94.14
40612;BME280;26317;44.894;20.286;2023-04-08T05:56:57;101029.19;;;7.68;93.11
40612;BME280;26317;44.894;20.286;2023-04-08T05:59:31;101026.63;;;7.73;93.24
40612;BME280;26317;44.894;20.286;2023-04-08T06:02:01;101036.69;;;7.83;92.98
40612;BME280;26317;44.894;20.286;2023-04-08T06:04:31;101040.28;;;7.89;90.84
40612;BME280;26317;44.894;20.286;2023-04-08T06:07:02;101038.66;;;7.88;89.76
40612;BME280;26317;44.894;20.286;2023-04-08T06:09:34;101020.56;;;7.78;89.10
40612;BME280;26317;44.894;20.286;2023-04-08T06:12:06;101039.88;;;7.97;89.29
40612;BME280;26317;44.894;20.286;2023-04-08T06:14:39;101010.81;;;7.83;89.18
40612;BME280;26317;44.894;20.286;2023-04-08T06:17:09;101045.25;;;8.13;89.63
40612;BME280;26317;44.894;20.286;2023-04-08T06:19:40;101034.97;;;8.22;88.44
40612;BME280;26317;44.894;20.286;2023-04-08T06:22:10;101043.16;;;8.32;88.67
40612;BME280;26317;44.894;20.286;2023-04-08T06:24:40;101031.66;;;8.31;88.05
40612;BME280;26317;44.894;20.286;2023-04-08T06:27:11;101039.84;;;8.42;87.81
40612;BME280;26317;44.894;20.286;2023-04-08T06:29:44;101044.69;;;8.45;87.07
40612;BME280;26317;44.894;20.286;2023-04-08T06:32:15;101045.50;;;8.45;86.73
40612;BME280;26317;44.894;20.286;2023-04-08T06:34:45;101051.81;;;8.56;86.38
40612;BME280;26317;44.894;20.286;2023-04-08T06:37:16;101026.56;;;8.47;86.06
40612;BME280;26317;44.894;20.286;2023-04-08T06:39:46;101041.47;;;8.59;85.62
40612;BME280;26317;44.894;20.286;2023-04-08T06:42:17;101047.75;;;8.70;86.07
40612;BME280;26317;44.894;20.286;2023-04-08T06:45:08;101056.16;;;8.78;85.91
40612;BME280;26317;44.894;20.286;2023-04-08T06:47:38;101062.94;;;8.86;83.90
40612;BME280;26317;44.894;20.286;2023-04-08T06:50:09;101057.88;;;8.85;82.62
40612;BME280;26317;44.894;20.286;2023-04-08T06:52:39;101075.09;;;8.94;82.97
40612;BME280;26317;44.894;20.286;2023-04-08T06:55:10;101070.88;;;8.98;83.22
40612;BME280;26317;44.894;20.286;2023-04-08T06:57:40;101059.69;;;9.01;82.89
40612;BME280;26317;44.894;20.286;2023-04-08T07:00:14;101069.22;;;9.13;81.84
40612;BME280;26317;44.894;20.286;2023-04-08T07:02:44;101044.44;;;9.01;83.03
40612;BME280;26317;44.894;20.286;2023-04-08T07:05:15;101028.81;;;9.15;84.53
40612;BME280;26317;44.894;20.286;2023-04-08T07:07:46;101063.78;;;9.52;83.48
40612;BME280;26317;44.894;20.286;2023-04-08T07:10:17;101049.91;;;9.55;80.04
40612;BME280;26317;44.894;20.286;2023-04-08T07:12:47;101083.31;;;9.74;76.47
40612;BME280;26317;44.894;20.286;2023-04-08T07:15:21;101073.78;;;9.83;79.63
40612;BME280;26317;44.894;20.286;2023-04-08T07:17:52;101067.69;;;9.88;79.64
40612;BME280;26317;44.894;20.286;2023-04-08T07:20:23;101066.09;;;9.92;78.47
40612;BME280;26317;44.894;20.286;2023-04-08T07:22:54;101082.78;;;9.99;74.86
40612;BME280;26317;44.894;20.286;2023-04-08T07:25:24;101080.91;;;9.99;76.83
40612;BME280;26317;44.894;20.286;2023-04-08T07:27:55;101071.16;;;9.88;75.89
40612;BME280;26317;44.894;20.286;2023-04-08T07:30:28;101056.53;;;9.74;76.19
40612;BME280;26317;44.894;20.286;2023-04-08T07:32:59;101091.53;;;9.89;76.34
40612;BME280;26317;44.894;20.286;2023-04-08T07:35:30;101084.00;;;9.86;79.18
40612;BME280;26317;44.894;20.286;2023-04-08T07:38:00;101077.38;;;9.94;78.73
40612;BME280;26317;44.894;20.286;2023-04-08T07:40:31;101090.06;;;10.03;78.69
40612;BME280;26317;44.894;20.286;2023-04-08T07:43:01;101085.00;;;10.07;79.13
40612;BME280;26317;44.894;20.286;2023-04-08T07:45:34;101050.78;;;9.87;80.33
40612;BME280;26317;44.894;20.286;2023-04-08T07:48:05;101096.69;;;10.18;79.37
40612;BME280;26317;44.894;20.286;2023-04-08T07:50:35;101085.94;;;10.18;80.76
40612;BME280;26317;44.894;20.286;2023-04-08T07:53:26;101091.66;;;10.26;79.91
40612;BME280;26317;44.894;20.286;2023-04-08T07:55:56;101094.63;;;10.30;79.81
40612;BME280;26317;44.894;20.286;2023-04-08T07:58:27;101092.44;;;10.22;76.68
40612;BME280;26317;44.894;20.286;2023-04-08T08:01:01;101088.75;;;10.33;79.12
40612;BME280;26317;44.894;20.286;2023-04-08T08:03:32;101088.56;;;10.39;80.37
40612;BME280;26317;44.894;20.286;2023-04-08T08:06:03;101073.78;;;10.37;78.71
40612;BME280;26317;44.894;20.286;2023-04-08T08:08:33;101031.78;;;10.15;79.64
40612;BME280;26317;44.894;20.286;2023-04-08T08:11:04;101088.78;;;10.70;79.00
40612;BME280;26317;44.894;20.286;2023-04-08T08:13:34;101073.94;;;10.57;77.28
40612;BME280;26317;44.894;20.286;2023-04-08T08:16:07;101098.25;;;10.82;78.75
40612;BME280;26317;44.894;20.286;2023-04-08T08:18:38;101095.09;;;10.90;78.04
40612;BME280;26317;44.894;20.286;2023-04-08T08:21:08;101104.00;;;10.96;74.27
40612;BME280;26317;44.894;20.286;2023-04-08T08:23:39;101100.44;;;10.85;73.53
40612;BME280;26317;44.894;20.286;2023-04-08T08:26:09;101103.03;;;10.75;72.65
40612;BME280;26317;44.894;20.286;2023-04-08T08:28:39;101094.38;;;10.63;69.16
40612;BME280;26317;44.894;20.286;2023-04-08T08:31:14;101088.44;;;10.56;69.71
40612;BME280;26317;44.894;20.286;2023-04-08T08:33:44;101101.91;;;10.66;70.97
40612;BME280;26317;44.894;20.286;2023-04-08T08:36:15;101105.97;;;10.69;72.05
40612;BME280;26317;44.894;20.286;2023-04-08T08:38:45;101102.19;;;10.70;71.52
40612;BME280;26317;44.894;20.286;2023-04-08T08:41:18;101094.94;;;10.70;70.19
40612;BME280;26317;44.894;20.286;2023-04-08T08:43:48;101080.88;;;10.53;70.88
40612;BME280;26317;44.894;20.286;2023-04-08T08:46:21;101088.28;;;10.73;73.32
40612;BME280;26317;44.894;20.286;2023-04-08T08:48:52;101096.66;;;10.86;73.56
40612;BME280;26317;44.894;20.286;2023-04-08T08:51:22;101079.44;;;10.77;74.39
40612;BME280;26317;44.894;20.286;2023-04-08T08:53:54;101096.47;;;10.93;72.51
40612;BME280;26317;44.894;20.286;2023-04-08T08:56:24;101101.00;;;10.92;66.30
40612;BME280;26317;44.894;20.286;2023-04-08T08:58:54;101093.50;;;10.89;71.07
40612;BME280;26317;44.894;20.286;2023-04-08T09:01:41;101095.28;;;10.79;66.84
40612;BME280;26317;44.894;20.286;2023-04-08T09:04:13;101099.84;;;10.78;68.54
40612;BME280;26317;44.894;20.286;2023-04-08T09:06:46;101106.34;;;10.87;68.05
40612;BME280;26317;44.894;20.286;2023-04-08T09:09:19;101110.69;;;10.93;67.75
40612;BME280;26317;44.894;20.286;2023-04-08T09:12:02;101081.88;;;10.79;72.64
40612;BME280;26317;44.894;20.286;2023-04-08T09:14:33;101097.84;;;11.00;73.52
40612;BME280;26317;44.894;20.286;2023-04-08T09:17:06;101122.03;;;11.11;73.04
40612;BME280;26317;44.894;20.286;2023-04-08T09:19:37;101114.28;;;11.09;71.69
40612;BME280;26317;44.894;20.286;2023-04-08T09:22:08;101117.47;;;11.06;69.96
40612;BME280;26317;44.894;20.286;2023-04-08T09:24:38;101122.00;;;11.00;71.99
40612;BME280;26317;44.894;20.286;2023-04-08T09:27:10;101117.16;;;11.02;71.30
40612;BME280;26317;44.894;20.286;2023-04-08T09:29:41;101117.69;;;10.99;72.25
40612;BME280;26317;44.894;20.286;2023-04-08T09:32:14;101124.72;;;11.05;72.71
40612;BME280;26317;44.894;20.286;2023-04-08T09:34:45;101127.94;;;11.07;73.16
40612;BME280;26317;44.894;20.286;2023-04-08T09:37:15;101126.03;;;11.03;70.74
40612;BME280;26317;44.894;20.286;2023-04-08T09:39:45;101114.69;;;10.91;69.87
40612;BME280;26317;44.894;20.286;2023-04-08T09:42:18;101126.00;;;10.98;71.08
40612;BME280;26317;44.894;20.286;2023-04-08T09:44:50;101115.44;;;10.86;70.93
40612;BME280;26317;44.894;20.286;2023-04-08T09:47:27;101125.94;;;10.88;71.32
40612;BME280;26317;44.894;20.286;2023-04-08T09:50:01;101127.84;;;10.92;72.65
40612;BME280;26317;44.894;20.286;2023-04-08T09:52:43;101134.81;;;10.88;71.16
40612;BME280;26317;44.894;20.286;2023-04-08T09:55:16;101142.28;;;10.86;69.61
40612;BME280;26317;44.894;20.286;2023-04-08T09:57:55;101143.28;;;10.75;70.13
40612;BME280;26317;44.894;20.286;2023-04-08T10:00:29;101145.38;;;10.68;66.32
40612;BME280;26317;44.894;20.286;2023-04-08T10:03:09;101137.25;;;10.58;69.03
40612;BME280;26317;44.894;20.286;2023-04-08T10:05:41;101136.72;;;10.56;67.06
40612;BME280;26317;44.894;20.286;2023-04-08T10:08:13;101125.31;;;10.44;67.83
40612;BME280;26317;44.894;20.286;2023-04-08T10:10:44;101143.09;;;10.50;68.38
40612;BME280;26317;44.894;20.286;2023-04-08T10:13:16;101139.28;;;10.46;69.66
40612;BME280;26317;44.894;20.286;2023-04-08T10:15:47;101148.16;;;10.46;68.13
40612;BME280;26317;44.894;20.286;2023-04-08T10:18:33;101151.88;;;10.45;69.54
40612;BME280;26317;44.894;20.286;2023-04-08T10:21:04;101148.91;;;10.42;68.00
40612;BME280;26317;44.894;20.286;2023-04-08T10:23:56;101151.53;;;10.37;67.78
40612;BME280;26317;44.894;20.286;2023-04-08T10:26:32;101142.69;;;10.36;67.35
40612;BME280;26317;44.894;20.286;2023-04-08T10:32:28;101154.69;;;10.29;68.32
40612;BME280;26317;44.894;20.286;2023-04-08T10:35:01;101127.22;;;10.17;69.92
40612;BME280;26317;44.894;20.286;2023-04-08T10:37:32;101157.13;;;10.30;67.94
40612;BME280;26317;44.894;20.286;2023-04-08T10:40:04;101154.16;;;10.32;68.69
40612;BME280;26317;44.894;20.286;2023-04-08T10:42:34;101132.06;;;10.20;70.39
40612;BME280;26317;44.894;20.286;2023-04-08T10:45:06;101157.16;;;10.35;73.25
40612;BME280;26317;44.894;20.286;2023-04-08T10:47:36;101155.31;;;10.41;73.70
40612;BME280;26317;44.894;20.286;2023-04-08T10:50:19;101153.75;;;10.45;73.83
40612;BME280;26317;44.894;20.286;2023-04-08T10:52:51;101141.38;;;10.39;73.25
40612;BME280;26317;44.894;20.286;2023-04-08T10:55:25;101157.06;;;10.52;73.66
40612;BME280;26317;44.894;20.286;2023-04-08T10:58:04;101154.66;;;10.55;70.15
40612;BME280;26317;44.894;20.286;2023-04-08T11:00:37;101141.41;;;10.44;68.25
40612;BME280;26317;44.894;20.286;2023-04-08T11:03:09;101144.81;;;10.34;67.89
40612;BME280;26317;44.894;20.286;2023-04-08T11:05:44;101144.00;;;10.34;68.24
40612;BME280;26317;44.894;20.286;2023-04-08T11:08:15;101150.56;;;10.48;67.91
40612;BME280;26317;44.894;20.286;2023-04-08T11:10:47;101129.84;;;10.38;68.44
40612;BME280;26317;44.894;20.286;2023-04-08T11:13:17;101158.47;;;10.33;68.91
40612;BME280;26317;44.894;20.286;2023-04-08T11:15:49;101147.97;;;10.26;69.21
40612;BME280;26317;44.894;20.286;2023-04-08T11:18:20;101142.97;;;10.40;71.36
40612;BME280;26317;44.894;20.286;2023-04-08T11:20:55;101144.41;;;10.47;70.36
40612;BME280;26317;44.894;20.286;2023-04-08T11:23:26;101145.59;;;10.61;69.81
40612;BME280;26317;44.894;20.286;2023-04-08T11:25:56;101150.75;;;10.68;69.59
40612;BME280;26317;44.894;20.286;2023-04-08T11:28:27;101157.75;;;10.74;67.77
40612;BME280;26317;44.894;20.286;2023-04-08T11:30:58;101145.81;;;10.55;68.68
40612;BME280;26317;44.894;20.286;2023-04-08T11:33:30;101151.25;;;10.65;69.44
40612;BME280;26317;44.894;20.286;2023-04-08T11:36:04;101143.19;;;10.60;69.05
40612;BME280;26317;44.894;20.286;2023-04-08T12:52:18;101108.25;;;12.57;65.51
40612;BME280;26317;44.894;20.286;2023-04-08T12:54:49;101112.03;;;12.45;64.10
40612;BME280;26317;44.894;20.286;2023-04-08T12:57:19;101104.50;;;12.58;65.46
40612;BME280;26317;44.894;20.286;2023-04-08T12:59:49;101111.47;;;12.74;66.00
40612;BME280;26317;44.894;20.286;2023-04-08T13:02:19;101088.63;;;12.51;60.87
40612;BME280;26317;44.894;20.286;2023-04-08T13:04:51;101100.19;;;12.62;61.13
40612;BME280;26317;44.894;20.286;2023-04-08T13:07:25;101111.75;;;12.72;61.76
40612;BME280;26317;44.894;20.286;2023-04-08T13:09:55;101096.13;;;12.79;62.87
40612;BME280;26317;44.894;20.286;2023-04-08T13:12:25;101107.97;;;12.88;60.92
40612;BME280;26317;44.894;20.286;2023-04-08T13:14:56;101075.44;;;12.65;63.37
40612;BME280;26317;44.894;20.286;2023-04-08T13:17:27;101082.66;;;12.84;64.84
40612;BME280;26317;44.894;20.286;2023-04-08T13:19:58;101097.72;;;12.90;60.46
40612;BME280;26317;44.894;20.286;2023-04-08T13:22:31;101095.56;;;12.93;59.55
40612;BME280;26317;44.894;20.286;2023-04-08T13:25:02;101096.94;;;12.70;59.52
40612;BME280;26317;44.894;20.286;2023-04-08T13:27:33;101100.72;;;12.74;63.62
40612;BME280;26317;44.894;20.286;2023-04-08T13:30:05;101086.69;;;12.82;61.16
40612;BME280;26317;44.894;20.286;2023-04-08T13:32:35;101081.09;;;12.68;60.75
40612;BME280;26317;44.894;20.286;2023-04-08T13:35:07;101087.28;;;12.59;59.55
40612;BME280;26317;44.894;20.286;2023-04-08T13:37:40;101067.09;;;12.51;59.53
40612;BME280;26317;44.894;20.286;2023-04-08T13:40:11;101075.97;;;12.67;62.16
40612;BME280;26317;44.894;20.286;2023-04-08T13:42:41;101086.97;;;12.85;62.96
40612;BME280;26317;44.894;20.286;2023-04-08T13:45:12;101086.44;;;12.94;60.30
40612;BME280;26317;44.894;20.286;2023-04-08T13:47:42;101071.34;;;12.93;62.05
40612;BME280;26317;44.894;20.286;2023-04-08T13:50:13;101097.94;;;13.19;62.17
40612;BME280;26317;44.894;20.286;2023-04-08T13:52:46;101068.09;;;13.06;61.65
40612;BME280;26317;44.894;20.286;2023-04-08T13:55:17;101086.34;;;13.24;63.81
40612;BME280;26317;44.894;20.286;2023-04-08T13:57:48;101078.31;;;13.14;60.75
40612;BME280;26317;44.894;20.286;2023-04-08T14:00:18;101086.09;;;13.15;63.16
40612;BME280;26317;44.894;20.286;2023-04-08T14:02:49;101076.97;;;13.11;61.46
40612;BME280;26317;44.894;20.286;2023-04-08T14:05:19;101092.56;;;13.09;60.11
40612;BME280;26317;44.894;20.286;2023-04-08T14:07:52;101079.38;;;13.08;59.68
40612;BME280;26317;44.894;20.286;2023-04-08T14:10:22;101079.66;;;13.06;60.40
40612;BME280;26317;44.894;20.286;2023-04-08T14:12:53;101073.47;;;13.01;61.46
40612;BME280;26317;44.894;20.286;2023-04-08T14:15:23;101085.56;;;13.03;63.01
40612;BME280;26317;44.894;20.286;2023-04-08T14:17:53;101082.38;;;13.01;64.19
40612;BME280;26317;44.894;20.286;2023-04-08T14:20:24;101070.28;;;12.94;64.01
40612;BME280;26317;44.894;20.286;2023-04-08T14:22:59;101077.53;;;12.98;63.78
40612;BME280;26317;44.894;20.286;2023-04-08T14:25:32;101072.16;;;12.98;62.23
40612;BME280;26317;44.894;20.286;2023-04-08T14:28:02;101081.56;;;12.90;61.48